Time;durP1;ratioP1;P1;durP2;ratioP2;P2;SDS_P1;SDS_P2;PMS_P1;PMS_P2;Temp;Humidity;BMP_temperature;BMP_pressure;BME280_temperature;BME280_humidity;BME280_pressure;Samples;Min_cycle;Max_cycle;Signal;HPM_P1;HPM_P2
2022/07/13 00:01:01;;;;;;;1.80;1.70;;;;;;;;;;4981886;28;20034;-69
2022/07/13 00:03:26;;;;;;;1.85;1.75;;;;;;;;;;4981331;28;20450;-70
2022/07/13 00:05:51;;;;;;;5.53;1.50;;;;;;;;;;4981474;28;20053;-69
2022/07/13 00:08:17;;;;;;;5.78;1.55;;;;;;;;;;4981602;28;20042;-70
2022/07/13 00:10:43;;;;;;;3.42;1.67;;;;;;;;;;4981841;28;20041;-70
2022/07/13 00:13:08;;;;;;;2.13;1.50;;;;;;;;;;4981857;28;20041;-70
2022/07/13 00:15:33;;;;;;;4.40;1.75;;;;;;;;;;4981141;28;20487;-70
2022/07/13 00:17:59;;;;;;;2.72;1.73;;;;;;;;;;4981655;28;20030;-70
2022/07/13 00:20:27;;;;;;;3.30;1.77;;;;;;;;;;4981445;28;20476;-69
2022/07/13 00:22:52;;;;;;;2.00;1.80;;;;;;;;;;4981511;28;20038;-70
2022/07/13 00:25:17;;;;;;;2.80;1.60;;;;;;;;;;4980938;28;20058;-70
2022/07/13 00:27:43;;;;;;;4.72;1.73;;;;;;;;;;4981427;28;20105;-70
2022/07/13 00:30:09;;;;;;;1.70;1.60;;;;;;;;;;4981912;28;20487;-70
2022/07/13 00:32:34;;;;;;;5.32;1.48;;;;;;;;;;4980195;28;20073;-69
2022/07/13 00:35:00;;;;;;;2.90;1.50;;;;;;;;;;4981999;28;20113;-70
2022/07/13 00:37:25;;;;;;;5.72;2.13;;;;;;;;;;4984313;28;20034;-70
2022/07/13 00:39:50;;;;;;;3.58;1.90;;;;;;;;;;4984293;28;20044;-70
2022/07/13 00:42:16;;;;;;;2.05;1.85;;;;;;;;;;4985492;28;20054;-70
2022/07/13 00:44:41;;;;;;;5.50;1.60;;;;;;;;;;4984376;28;20550;-70
2022/07/13 00:47:06;;;;;;;4.13;2.00;;;;;;;;;;4984786;28;20037;-70
2022/07/13 00:49:32;;;;;;;2.35;1.60;;;;;;;;;;4985436;28;20046;-70
2022/07/13 00:51:58;;;;;;;1.65;1.45;;;;;;;;;;4985111;28;20542;-70
2022/07/13 00:54:30;;;;;;;2.80;1.52;;;;;;;;;;4984158;28;20030;-70
2022/07/13 00:57:00;;;;;;;1.30;1.20;;;;;;;;;;4985077;28;20034;-69
2022/07/13 00:59:26;;;;;;;2.67;1.60;;;;;;;;;;4982704;28;20041;-70
2022/07/13 01:01:53;;;;;;;3.08;1.52;;;;;;;;;;4984001;28;20038;-69
2022/07/13 01:04:26;;;;;;;1.60;1.50;;;;;;;;;;4983532;28;20132;-69
2022/07/13 01:06:55;;;;;;;4.90;1.50;;;;;;;;;;4983758;28;20084;-70
2022/07/13 01:09:23;;;;;;;1.85;1.50;;;;;;;;;;4983889;28;20120;-69
2022/07/13 01:11:50;;;;;;;1.52;1.42;;;;;;;;;;4983419;28;20038;-69
2022/07/13 01:14:16;;;;;;;2.33;1.40;;;;;;;;;;4984794;28;20034;-69
2022/07/13 01:16:41;;;;;;;5.45;1.70;;;;;;;;;;4983866;28;20614;-70
2022/07/13 01:19:10;;;;;;;2.65;1.63;;;;;;;;;;4983278;28;20108;-69
2022/07/13 01:21:39;;;;;;;2.78;1.50;;;;;;;;;;4984147;28;20422;-70
2022/07/13 01:24:05;;;;;;;2.03;1.48;;;;;;;;;;4984724;28;20030;-70
2022/07/13 01:26:31;;;;;;;2.63;1.60;;;;;;;;;;4983200;28;20041;-70
2022/07/13 01:28:56;;;;;;;2.25;1.65;;;;;;;;;;4984999;28;20031;-70
2022/07/13 01:31:41;;;;;;;1.70;1.60;;;;;;;;;;4982284;28;20049;-71
2022/07/13 01:34:07;;;;;;;4.85;1.70;;;;;;;;;;4984593;28;20030;-70
2022/07/13 01:36:38;;;;;;;4.70;1.80;;;;;;;;;;4983225;28;20196;-70
2022/07/13 01:39:05;;;;;;;3.15;1.88;;;;;;;;;;4979922;28;20101;-70
2022/07/13 01:41:30;;;;;;;1.67;1.52;;;;;;;;;;4982894;28;20490;-70
2022/07/13 01:43:57;;;;;;;5.15;2.28;;;;;;;;;;4982702;28;20038;-70
2022/07/13 01:46:26;;;;;;;2.90;1.90;;;;;;;;;;4983950;28;20034;-71
2022/07/13 01:48:53;;;;;;;8.02;1.92;;;;;;;;;;4982687;28;20431;-70
2022/07/13 01:51:19;;;;;;;1.80;1.70;;;;;;;;;;4983946;28;20070;-70
2022/07/13 01:53:45;;;;;;;1.77;1.65;;;;;;;;;;4982122;28;20571;-70
2022/07/13 01:56:10;;;;;;;2.67;1.80;;;;;;;;;;4983645;28;20034;-70
2022/07/13 01:58:36;;;;;;;3.20;1.85;;;;;;;;;;4982796;28;20038;-70
2022/07/13 02:01:01;;;;;;;2.55;1.70;;;;;;;;;;4982669;28;20430;-70
2022/07/13 02:03:29;;;;;;;3.03;1.77;;;;;;;;;;4984203;28;20090;-70
2022/07/13 02:05:55;;;;;;;2.08;1.95;;;;;;;;;;4982949;28;20042;-69
2022/07/13 02:08:21;;;;;;;2.03;1.92;;;;;;;;;;4982190;28;20041;-70
2022/07/13 02:10:47;;;;;;;3.65;2.22;;;;;;;;;;4982750;28;20030;-70
2022/07/13 02:13:12;;;;;;;5.88;2.13;;;;;;;;;;4982384;28;20647;-72
2022/07/13 02:15:39;;;;;;;3.25;1.95;;;;;;;;;;4981878;28;20034;-70
2022/07/13 02:18:05;;;;;;;4.03;2.00;;;;;;;;;;4982049;28;20034;-70
2022/07/13 02:20:32;;;;;;;3.53;1.70;;;;;;;;;;4983639;28;20041;-70
2022/07/13 02:22:57;;;;;;;2.90;2.22;;;;;;;;;;4982570;28;20086;-71
2022/07/13 02:25:26;;;;;;;1.90;1.80;;;;;;;;;;4983169;28;20041;-70
2022/07/13 02:27:51;;;;;;;4.95;2.10;;;;;;;;;;4982581;28;20391;-70
2022/07/13 02:30:17;;;;;;;2.22;2.00;;;;;;;;;;4983345;28;20038;-70
2022/07/13 02:32:44;;;;;;;2.08;1.98;;;;;;;;;;4982168;28;20954;-70
2022/07/13 02:35:11;;;;;;;2.00;1.83;;;;;;;;;;4981998;28;20041;-70
2022/07/13 02:37:37;;;;;;;4.35;2.25;;;;;;;;;;4981166;28;20138;-70
2022/07/13 02:40:05;;;;;;;16.02;2.72;;;;;;;;;;4981866;28;20100;-70
2022/07/13 02:42:30;;;;;;;4.32;2.17;;;;;;;;;;4983434;28;20106;-70
2022/07/13 02:44:56;;;;;;;3.42;2.00;;;;;;;;;;4983071;28;20209;-70
2022/07/13 02:47:22;;;;;;;4.70;2.38;;;;;;;;;;4981954;28;21037;-70
2022/07/13 02:49:48;;;;;;;3.08;1.95;;;;;;;;;;4982301;28;20041;-70
2022/07/13 02:52:14;;;;;;;3.72;1.77;;;;;;;;;;4981776;28;20034;-69
2022/07/13 02:54:40;;;;;;;2.40;2.10;;;;;;;;;;4981728;28;20045;-70
2022/07/13 02:57:05;;;;;;;1.90;1.67;;;;;;;;;;4980842;28;20113;-70
2022/07/13 02:59:33;;;;;;;2.65;2.42;;;;;;;;;;4980958;28;20049;-70
2022/07/13 03:01:59;;;;;;;4.63;1.85;;;;;;;;;;4981454;28;20042;-70
2022/07/13 03:04:25;;;;;;;7.93;2.22;;;;;;;;;;4981505;28;20060;-70
2022/07/13 03:06:51;;;;;;;3.85;2.13;;;;;;;;;;4965268;28;20042;-69
2022/07/13 03:09:17;;;;;;;4.82;2.28;;;;;;;;;;4981154;28;20045;-69
2022/07/13 03:11:43;;;;;;;3.60;2.17;;;;;;;;;;4980831;28;20030;-69
2022/07/13 03:14:08;;;;;;;7.75;2.20;;;;;;;;;;4982436;28;20033;-70
2022/07/13 03:16:34;;;;;;;3.42;2.08;;;;;;;;;;4981807;28;20026;-70
2022/07/13 03:19:00;;;;;;;3.78;2.10;;;;;;;;;;4980899;28;20053;-70
2022/07/13 03:21:29;;;;;;;3.63;2.03;;;;;;;;;;4980652;28;20039;-70
2022/07/13 03:23:58;;;;;;;4.13;2.30;;;;;;;;;;4981232;28;20034;-70
2022/07/13 03:26:24;;;;;;;5.90;2.20;;;;;;;;;;4981173;28;20461;-70
2022/07/13 03:28:51;;;;;;;2.53;2.13;;;;;;;;;;4980896;28;20498;-69
2022/07/13 03:31:17;;;;;;;2.90;2.13;;;;;;;;;;4981218;28;20091;-70
2022/07/13 03:33:43;;;;;;;3.03;2.38;;;;;;;;;;4980302;28;20107;-70
2022/07/13 03:36:08;;;;;;;2.53;2.30;;;;;;;;;;4981006;28;20042;-70
2022/07/13 03:38:36;;;;;;;3.08;2.50;;;;;;;;;;4978765;28;20550;-70
2022/07/13 03:41:03;;;;;;;5.07;2.30;;;;;;;;;;4980642;28;20392;-70
2022/07/13 03:43:29;;;;;;;2.42;2.22;;;;;;;;;;4980176;28;20063;-70
2022/07/13 03:45:54;;;;;;;2.50;2.30;;;;;;;;;;4981048;28;20500;-70
2022/07/13 03:48:20;;;;;;;2.50;2.30;;;;;;;;;;4979073;28;20034;-70
2022/07/13 03:50:46;;;;;;;2.88;2.00;;;;;;;;;;4980518;28;20599;-70
2022/07/13 03:53:13;;;;;;;2.67;2.00;;;;;;;;;;4980505;28;20041;-70
2022/07/13 03:55:40;;;;;;;2.47;2.20;;;;;;;;;;4981321;28;20022;-70
2022/07/13 03:58:05;;;;;;;3.53;2.10;;;;;;;;;;4980431;28;20124;-70
2022/07/13 04:00:31;;;;;;;3.42;2.22;;;;;;;;;;4980752;28;20038;-70
2022/07/13 04:02:57;;;;;;;3.28;2.10;;;;;;;;;;4980630;28;20062;-71
2022/07/13 04:05:25;;;;;;;3.42;2.05;;;;;;;;;;4979417;28;20077;-71
2022/07/13 04:07:51;;;;;;;2.25;2.05;;;;;;;;;;4980309;28;20050;-71
2022/07/13 04:10:21;;;;;;;5.32;2.30;;;;;;;;;;4980331;28;20042;-70
2022/07/13 04:12:49;;;;;;;2.80;2.17;;;;;;;;;;4980488;28;20030;-71
2022/07/13 04:15:15;;;;;;;10.48;2.40;;;;;;;;;;4964306;28;20034;-69
2022/07/13 04:17:42;;;;;;;3.97;2.30;;;;;;;;;;4979498;28;20038;-69
2022/07/13 04:20:09;;;;;;;3.83;2.28;;;;;;;;;;4980126;28;20038;-70
2022/07/13 04:22:35;;;;;;;5.28;2.28;;;;;;;;;;4980654;28;20104;-70
2022/07/13 04:25:04;;;;;;;2.30;2.10;;;;;;;;;;4980238;28;20089;-69
2022/07/13 04:27:30;;;;;;;2.38;2.08;;;;;;;;;;4962990;28;20483;-70
2022/07/13 04:29:56;;;;;;;2.83;2.28;;;;;;;;;;4980364;28;20995;-70
2022/07/13 04:32:22;;;;;;;4.43;3.20;;;;;;;;;;4981572;28;20091;-70
2022/07/13 04:34:47;;;;;;;3.53;3.20;;;;;;;;;;4980280;28;20054;-70
2022/07/13 04:37:13;;;;;;;3.70;2.13;;;;;;;;;;4964254;28;20033;-70
2022/07/13 04:39:40;;;;;;;2.05;1.92;;;;;;;;;;4979159;28;20117;-70
2022/07/13 04:42:05;;;;;;;2.03;1.83;;;;;;;;;;4963960;28;20065;-70
2022/07/13 04:44:31;;;;;;;4.93;1.90;;;;;;;;;;4980103;28;20145;-70
2022/07/13 04:46:57;;;;;;;2.00;1.73;;;;;;;;;;4980308;28;20035;-70
2022/07/13 04:49:23;;;;;;;5.32;1.92;;;;;;;;;;4977328;28;20034;-70
2022/07/13 04:51:50;;;;;;;2.00;1.80;;;;;;;;;;4980470;28;20038;-71
2022/07/13 04:54:19;;;;;;;1.80;1.70;;;;;;;;;;4980080;28;20022;-71
2022/07/13 04:56:46;;;;;;;1.58;1.48;;;;;;;;;;4979160;28;20022;-71
2022/07/13 04:59:12;;;;;;;2.25;1.75;;;;;;;;;;4979204;28;20034;-70
2022/07/13 05:01:38;;;;;;;6.35;2.28;;;;;;;;;;4978903;28;20534;-70
2022/07/13 05:04:04;;;;;;;6.00;1.73;;;;;;;;;;4979917;28;20035;-71
2022/07/13 05:06:30;;;;;;;2.50;1.90;;;;;;;;;;4979657;28;20034;-70
2022/07/13 05:08:56;;;;;;;6.18;1.85;;;;;;;;;;4979692;28;20035;-71
2022/07/13 05:11:21;;;;;;;5.90;1.52;;;;;;;;;;4976837;28;20042;-70
2022/07/13 05:13:48;;;;;;;3.88;1.80;;;;;;;;;;4978792;28;20040;-71
2022/07/13 05:16:13;;;;;;;1.33;1.23;;;;;;;;;;4978919;28;20030;-70
2022/07/13 05:18:40;;;;;;;2.33;1.30;;;;;;;;;;4978416;28;20145;-72
2022/07/13 05:21:13;;;;;;;1.23;1.13;;;;;;;;;;4979654;28;20152;-71
2022/07/13 05:23:39;;;;;;;3.83;1.23;;;;;;;;;;4979720;28;21101;-71
2022/07/13 05:26:06;;;;;;;7.00;1.50;;;;;;;;;;4981311;28;20034;-71
2022/07/13 05:28:33;;;;;;;3.28;1.10;;;;;;;;;;4981328;28;20026;-71
2022/07/13 05:30:59;;;;;;;3.35;1.10;;;;;;;;;;4982785;28;20054;-70
2022/07/13 05:33:25;;;;;;;3.65;1.30;;;;;;;;;;4982301;28;20030;-70
2022/07/13 05:35:53;;;;;;;2.95;1.20;;;;;;;;;;4982665;28;20100;-70
2022/07/13 05:38:18;;;;;;;1.55;1.20;;;;;;;;;;4984376;28;20522;-73
2022/07/13 05:40:46;;;;;;;3.72;1.42;;;;;;;;;;4983129;28;20033;-71
2022/07/13 05:43:12;;;;;;;2.58;1.08;;;;;;;;;;4982985;28;21020;-71
2022/07/13 05:45:37;;;;;;;1.25;1.10;;;;;;;;;;4983245;28;20092;-71
2022/07/13 05:48:03;;;;;;;2.40;1.20;;;;;;;;;;4982239;28;20034;-71
2022/07/13 05:50:28;;;;;;;4.50;1.23;;;;;;;;;;4983059;28;20143;-71
2022/07/13 05:52:55;;;;;;;3.40;1.33;;;;;;;;;;4982713;28;20038;-71
2022/07/13 05:55:22;;;;;;;1.13;1.02;;;;;;;;;;4981213;28;20121;-71
2022/07/13 05:57:48;;;;;;;1.15;1.05;;;;;;;;;;4981128;28;20113;-70
2022/07/13 06:00:14;;;;;;;2.15;1.08;;;;;;;;;;4983608;28;20049;-71
2022/07/13 06:02:41;;;;;;;1.33;0.82;;;;;;;;;;4984123;28;20030;-70
2022/07/13 06:05:07;;;;;;;1.30;1.20;;;;;;;;;;4983227;28;20039;-71
2022/07/13 06:07:33;;;;;;;3.70;1.38;;;;;;;;;;4980982;28;20038;-72
2022/07/13 06:10:00;;;;;;;2.25;1.30;;;;;;;;;;4983461;28;20506;-73
2022/07/13 06:12:25;;;;;;;3.25;1.48;;;;;;;;;;4982386;28;20030;-71
2022/07/13 06:14:54;;;;;;;2.65;1.30;;;;;;;;;;4983363;28;20038;-71
2022/07/13 06:17:20;;;;;;;2.35;1.20;;;;;;;;;;4981610;28;20089;-71
2022/07/13 06:19:46;;;;;;;2.30;1.00;;;;;;;;;;4982668;28;20049;-71
2022/07/13 06:22:11;;;;;;;2.58;1.23;;;;;;;;;;4982235;28;20030;-71
2022/07/13 06:24:37;;;;;;;5.90;1.17;;;;;;;;;;4982814;28;20041;-71
2022/07/13 06:27:02;;;;;;;4.05;1.38;;;;;;;;;;4981785;28;20062;-71
2022/07/13 06:29:28;;;;;;;2.97;1.40;;;;;;;;;;4981121;28;20469;-70
2022/07/13 06:31:53;;;;;;;3.05;1.10;;;;;;;;;;4980695;28;20030;-70
2022/07/13 06:34:19;;;;;;;2.67;1.15;;;;;;;;;;4981813;28;20104;-71
2022/07/13 06:36:44;;;;;;;3.50;1.20;;;;;;;;;;4981116;28;20464;-71
2022/07/13 06:39:10;;;;;;;2.65;1.25;;;;;;;;;;4981724;28;20048;-71
2022/07/13 06:41:35;;;;;;;2.80;1.13;;;;;;;;;;4981046;28;20574;-70
2022/07/13 06:44:01;;;;;;;1.42;0.98;;;;;;;;;;4982771;28;20534;-71
2022/07/13 06:46:27;;;;;;;1.80;1.00;;;;;;;;;;4983049;28;20030;-72
2022/07/13 06:48:52;;;;;;;3.38;1.00;;;;;;;;;;4982201;28;20038;-70
2022/07/13 06:51:18;;;;;;;1.33;0.68;;;;;;;;;;4980890;28;20046;-72
2022/07/13 06:53:43;;;;;;;3.28;0.80;;;;;;;;;;4981433;28;20038;-71
2022/07/13 06:56:09;;;;;;;0.70;0.70;;;;;;;;;;4982552;28;20100;-72
2022/07/13 06:58:34;;;;;;;2.10;1.45;;;;;;;;;;4982376;28;21024;-71
2022/07/13 07:00:59;;;;;;;3.33;0.90;;;;;;;;;;4982756;28;20038;-72
2022/07/13 07:03:25;;;;;;;4.95;0.80;;;;;;;;;;4982252;28;20070;-73
2022/07/13 07:05:51;;;;;;;1.15;0.90;;;;;;;;;;4981902;28;20038;-72
2022/07/13 07:08:17;;;;;;;0.80;0.80;;;;;;;;;;4981663;28;20031;-73
2022/07/13 07:10:42;;;;;;;1.23;0.90;;;;;;;;;;4982276;28;20913;-72
2022/07/13 07:13:08;;;;;;;3.22;1.20;;;;;;;;;;4981644;28;20041;-74
2022/07/13 07:15:34;;;;;;;4.53;0.82;;;;;;;;;;4981413;28;20050;-72
2022/07/13 07:18:00;;;;;;;4.03;1.23;;;;;;;;;;4983345;28;20034;-71
2022/07/13 07:20:28;;;;;;;1.85;1.00;;;;;;;;;;4982119;28;20394;-72
2022/07/13 07:22:54;;;;;;;1.95;0.93;;;;;;;;;;4980334;28;20046;-70
2022/07/13 07:25:19;;;;;;;3.55;1.00;;;;;;;;;;4981316;28;20796;-72
2022/07/13 07:27:45;;;;;;;3.03;1.17;;;;;;;;;;4980318;28;20678;-71
2022/07/13 07:30:10;;;;;;;1.20;0.98;;;;;;;;;;4981688;28;20149;-72
2022/07/13 07:32:37;;;;;;;1.05;0.95;;;;;;;;;;4980484;28;20507;-72
2022/07/13 07:35:02;;;;;;;0.93;0.70;;;;;;;;;;4980771;28;20175;-71
2022/07/13 07:37:28;;;;;;;4.53;0.90;;;;;;;;;;4981537;28;20054;-73
2022/07/13 07:39:53;;;;;;;1.42;0.93;;;;;;;;;;4981682;28;20084;-71
2022/07/13 07:42:19;;;;;;;3.70;1.00;;;;;;;;;;4980756;28;20046;-72
2022/07/13 07:44:44;;;;;;;3.50;0.88;;;;;;;;;;4981167;28;20099;-71
2022/07/13 07:47:10;;;;;;;9.35;0.95;;;;;;;;;;4978741;28;20042;-70
2022/07/13 07:49:36;;;;;;;4.05;0.90;;;;;;;;;;4981321;28;20042;-70
2022/07/13 07:52:01;;;;;;;1.73;0.80;;;;;;;;;;4982062;28;20048;-72
2022/07/13 07:54:27;;;;;;;2.03;0.80;;;;;;;;;;4975626;28;20034;-72
2022/07/13 07:56:52;;;;;;;1.20;0.88;;;;;;;;;;4976877;28;20034;-72
2022/07/13 07:59:18;;;;;;;2.78;0.90;;;;;;;;;;4978335;28;20076;-71
2022/07/13 08:01:44;;;;;;;1.30;0.90;;;;;;;;;;4980805;28;20035;-74
2022/07/13 08:04:10;;;;;;;2.08;0.70;;;;;;;;;;4977387;28;20058;-73
2022/07/13 08:06:35;;;;;;;0.93;0.80;;;;;;;;;;4979890;28;20034;-72
2022/07/13 08:09:01;;;;;;;2.50;1.00;;;;;;;;;;4978161;28;20046;-71
2022/07/13 08:11:27;;;;;;;3.40;0.90;;;;;;;;;;4980262;28;20117;-72
2022/07/13 08:13:52;;;;;;;3.17;0.75;;;;;;;;;;4980016;28;20475;-74
2022/07/13 08:16:19;;;;;;;3.58;0.85;;;;;;;;;;4980285;28;20026;-70
2022/07/13 08:18:45;;;;;;;1.33;0.70;;;;;;;;;;4979565;28;20057;-71
2022/07/13 08:21:11;;;;;;;1.20;0.70;;;;;;;;;;4980193;28;20432;-71
2022/07/13 08:23:52;;;;;;;1.40;0.82;;;;;;;;;;4978099;28;20082;-71
2022/07/13 08:26:19;;;;;;;2.17;0.80;;;;;;;;;;4978808;28;20058;-73
2022/07/13 08:28:45;;;;;;;2.88;0.93;;;;;;;;;;4980379;28;20034;-69
2022/07/13 08:31:11;;;;;;;2.60;0.65;;;;;;;;;;4979509;28;20034;-72
2022/07/13 08:39:05;;;;;;;2.53;0.80;;;;;;;;;;4979275;28;20038;-71
2022/07/13 08:41:32;;;;;;;0.60;0.60;;;;;;;;;;4979096;28;20041;-74
2022/07/13 08:43:58;;;;;;;5.07;0.68;;;;;;;;;;4980387;28;20084;-74
2022/07/13 08:46:25;;;;;;;0.63;0.50;;;;;;;;;;4979715;28;20038;-73
2022/07/13 08:48:54;;;;;;;1.67;0.45;;;;;;;;;;4978999;28;21084;-73
2022/07/13 08:51:21;;;;;;;1.75;0.60;;;;;;;;;;4978773;28;20085;-72
2022/07/13 08:53:48;;;;;;;0.50;0.50;;;;;;;;;;4979876;28;20076;-73
2022/07/13 08:56:14;;;;;;;1.25;0.60;;;;;;;;;;4981444;28;20499;-73
2022/07/13 08:58:39;;;;;;;4.60;0.70;;;;;;;;;;4983951;28;20042;-71
2022/07/13 09:01:08;;;;;;;0.65;0.60;;;;;;;;;;4983944;28;20046;-72
2022/07/13 09:03:35;;;;;;;1.67;0.52;;;;;;;;;;4981373;28;20113;-73
2022/07/13 09:06:00;;;;;;;0.55;0.50;;;;;;;;;;4981855;28;20089;-71
2022/07/13 09:08:26;;;;;;;5.72;0.73;;;;;;;;;;4982106;28;20118;-71
2022/07/13 09:10:55;;;;;;;0.52;0.50;;;;;;;;;;4972408;28;20515;-71
2022/07/13 09:13:56;;;;;;;2.92;0.65;;;;;;;;;;4983113;28;20030;-71
2022/07/13 09:16:26;;;;;;;0.82;0.82;;;;;;;;;;4950891;28;20039;-70
2022/07/13 09:18:58;;;;;;;1.97;0.80;;;;;;;;;;4982482;28;20074;-71
2022/07/13 09:21:24;;;;;;;2.10;0.60;;;;;;;;;;4982798;28;20061;-71
2022/07/13 09:23:54;;;;;;;2.80;0.73;;;;;;;;;;4983298;28;20205;-72
2022/07/13 09:26:21;;;;;;;3.25;0.70;;;;;;;;;;4982078;28;20117;-71
2022/07/13 09:28:48;;;;;;;2.45;0.65;;;;;;;;;;4983010;28;20491;-70
2022/07/13 09:31:15;;;;;;;0.43;0.43;;;;;;;;;;4981103;28;20081;-72
2022/07/13 09:33:43;;;;;;;1.88;0.68;;;;;;;;;;4983139;28;20037;-72
2022/07/13 09:36:18;;;;;;;2.70;0.70;;;;;;;;;;4982108;28;20384;-72
2022/07/13 09:38:51;;;;;;;1.92;0.63;;;;;;;;;;4981306;28;20077;-72
2022/07/13 09:41:17;;;;;;;1.90;0.57;;;;;;;;;;4982374;28;20407;-74
2022/07/13 09:46:35;;;;;;;0.75;0.60;;;;;;;;;;4982081;28;20034;-70
2022/07/13 09:49:00;;;;;;;2.22;0.70;;;;;;;;;;4982252;28;20392;-71
2022/07/13 09:51:26;;;;;;;3.75;0.90;;;;;;;;;;4983036;28;20072;-73
2022/07/13 09:53:55;;;;;;;0.52;0.50;;;;;;;;;;4980922;28;20499;-71
2022/07/13 09:56:24;;;;;;;4.00;0.77;;;;;;;;;;4982009;28;20121;-73
2022/07/13 09:58:51;;;;;;;2.33;0.70;;;;;;;;;;4981093;28;20952;-71
2022/07/13 10:01:16;;;;;;;0.93;0.75;;;;;;;;;;4981989;28;20033;-72
2022/07/13 10:03:43;;;;;;;1.17;0.60;;;;;;;;;;4982663;28;20050;-71
2022/07/13 10:06:09;;;;;;;4.45;0.63;;;;;;;;;;4982845;28;20049;-72
2022/07/13 10:08:34;;;;;;;1.85;0.50;;;;;;;;;;4979534;28;20057;-71
2022/07/13 10:11:01;;;;;;;3.25;0.70;;;;;;;;;;4964789;28;20046;-72
2022/07/13 10:13:26;;;;;;;2.15;0.60;;;;;;;;;;4981451;28;20096;-71
2022/07/13 10:15:51;;;;;;;0.47;0.40;;;;;;;;;;4982693;28;20030;-72
2022/07/13 10:18:32;;;;;;;0.43;0.43;;;;;;;;;;4982552;28;20062;-72
2022/07/13 10:21:29;;;;;;;1.77;0.60;;;;;;;;;;4981397;28;20479;-72
2022/07/13 10:23:55;;;;;;;3.22;0.60;;;;;;;;;;4975478;28;20415;-72
2022/07/13 10:26:23;;;;;;;2.00;0.50;;;;;;;;;;4980425;28;20052;-71
2022/07/13 10:29:06;;;;;;;1.13;0.47;;;;;;;;;;4980725;28;20098;-72
2022/07/13 10:31:33;;;;;;;0.80;0.50;;;;;;;;;;4980558;28;20034;-71
2022/07/13 10:34:01;;;;;;;0.38;0.35;;;;;;;;;;4982065;28;20042;-71
2022/07/13 10:36:48;;;;;;;0.40;0.40;;;;;;;;;;4982243;28;20504;-71
2022/07/13 10:39:14;;;;;;;0.57;0.57;;;;;;;;;;4982943;28;20108;-70
2022/07/13 10:42:07;;;;;;;0.63;0.40;;;;;;;;;;4981722;28;20030;-71
2022/07/13 10:44:41;;;;;;;0.82;0.70;;;;;;;;;;4982481;28;20089;-76
2022/07/13 10:47:11;;;;;;;0.30;0.30;;;;;;;;;;4982478;28;20036;-74
2022/07/13 10:49:48;;;;;;;0.30;0.30;;;;;;;;;;4982432;28;20168;-72
2022/07/13 10:52:25;;;;;;;0.40;0.40;;;;;;;;;;4982333;28;20475;-71
2022/07/13 10:55:11;;;;;;;1.63;0.60;;;;;;;;;;4983107;28;20142;-72
2022/07/13 10:57:38;;;;;;;3.28;0.77;;;;;;;;;;4982874;28;20076;-73
2022/07/13 11:00:18;;;;;;;3.03;0.40;;;;;;;;;;4982089;28;20141;-74
2022/07/13 11:03:03;;;;;;;1.48;0.52;;;;;;;;;;4982349;28;20041;-73
2022/07/13 11:05:33;;;;;;;0.52;0.32;;;;;;;;;;4979929;28;20506;-72
2022/07/13 11:08:11;;;;;;;3.22;0.35;;;;;;;;;;4983432;28;20157;-71
2022/07/13 11:10:36;;;;;;;0.45;0.40;;;;;;;;;;4982698;28;20116;-72
2022/07/13 11:13:10;;;;;;;0.30;0.30;;;;;;;;;;4983468;28;20034;-72
2022/07/13 11:15:44;;;;;;;2.78;0.50;;;;;;;;;;4981498;28;20026;-72
2022/07/13 11:18:21;;;;;;;0.30;0.30;;;;;;;;;;4981615;28;20056;-72
2022/07/13 11:21:09;;;;;;;0.77;0.40;;;;;;;;;;4981697;28;20495;-71
2022/07/13 11:27:09;;;;;;;1.63;0.50;;;;;;;;;;4959750;28;20113;-71
2022/07/13 11:29:45;;;;;;;0.28;0.28;;;;;;;;;;4960312;28;20174;-71
2022/07/13 11:32:12;;;;;;;2.50;0.47;;;;;;;;;;4959887;28;20161;-71
2022/07/13 11:34:38;;;;;;;0.52;0.40;;;;;;;;;;4980516;28;20034;-72
2022/07/13 11:37:04;;;;;;;0.57;0.50;;;;;;;;;;4981061;28;20042;-72
2022/07/13 11:39:30;;;;;;;0.40;0.40;;;;;;;;;;4982108;28;20038;-71
2022/07/13 11:41:58;;;;;;;1.40;0.50;;;;;;;;;;4981861;28;20034;-71
2022/07/13 11:44:30;;;;;;;1.13;0.50;;;;;;;;;;4981873;28;20049;-71
2022/07/13 11:46:57;;;;;;;2.42;0.45;;;;;;;;;;4981841;28;20034;-71
2022/07/13 11:49:24;;;;;;;3.08;0.60;;;;;;;;;;4980879;28;20495;-71
2022/07/13 11:51:50;;;;;;;0.43;0.43;;;;;;;;;;4979205;28;20041;-72
2022/07/13 11:54:21;;;;;;;6.60;0.60;;;;;;;;;;4981818;28;20034;-73
2022/07/13 11:56:51;;;;;;;0.93;0.50;;;;;;;;;;4980287;28;20132;-71
2022/07/13 11:59:42;;;;;;;0.70;0.45;;;;;;;;;;4981044;28;20048;-71
2022/07/13 12:02:10;;;;;;;0.75;0.60;;;;;;;;;;4981967;28;20049;-71
2022/07/13 12:04:40;;;;;;;0.73;0.50;;;;;;;;;;4982747;28;20038;-69
2022/07/13 12:07:20;;;;;;;2.83;0.40;;;;;;;;;;4981612;28;20112;-69
2022/07/13 12:09:52;;;;;;;0.95;0.40;;;;;;;;;;4981033;28;20505;-70
2022/07/13 12:12:21;;;;;;;0.30;0.30;;;;;;;;;;4979689;28;20034;-70
2022/07/13 12:14:48;;;;;;;2.70;0.30;;;;;;;;;;4981657;28;20030;-70
2022/07/13 12:17:14;;;;;;;1.58;0.40;;;;;;;;;;4981399;28;20034;-70
2022/07/13 12:19:39;;;;;;;1.45;0.50;;;;;;;;;;4980628;28;20053;-70
2022/07/13 12:22:07;;;;;;;0.40;0.40;;;;;;;;;;4979577;28;20045;-70
2022/07/13 12:24:33;;;;;;;1.60;0.22;;;;;;;;;;4979780;28;20865;-71
2022/07/13 12:26:59;;;;;;;3.05;0.40;;;;;;;;;;4981335;28;20038;-70
2022/07/13 12:29:33;;;;;;;0.25;0.25;;;;;;;;;;4978218;28;20034;-69
2022/07/13 12:32:02;;;;;;;3.47;0.40;;;;;;;;;;4980642;28;20046;-70
2022/07/13 12:34:28;;;;;;;1.17;0.30;;;;;;;;;;4980811;28;20396;-70
2022/07/13 12:36:54;;;;;;;1.08;0.50;;;;;;;;;;4982227;28;20040;-69
2022/07/13 12:39:33;;;;;;;2.83;0.32;;;;;;;;;;4984474;28;20042;-70
2022/07/13 12:41:58;;;;;;;0.60;0.40;;;;;;;;;;4984605;28;20058;-72
2022/07/13 12:44:29;;;;;;;1.67;0.50;;;;;;;;;;4983923;28;20113;-70
2022/07/13 12:46:55;;;;;;;0.30;0.30;;;;;;;;;;4983369;28;20419;-70
2022/07/13 12:49:37;;;;;;;1.85;0.40;;;;;;;;;;4985612;28;20053;-69
2022/07/13 12:52:04;;;;;;;0.55;0.38;;;;;;;;;;4980638;28;20132;-70
2022/07/13 12:54:42;;;;;;;0.80;0.40;;;;;;;;;;4982853;28;20026;-69
2022/07/13 12:57:10;;;;;;;0.32;0.30;;;;;;;;;;4983610;28;20050;-70
2022/07/13 12:59:36;;;;;;;0.30;0.30;;;;;;;;;;4984694;28;20045;-69
2022/07/13 13:02:02;;;;;;;0.60;0.52;;;;;;;;;;4984711;28;20053;-69
2022/07/13 13:04:29;;;;;;;3.03;0.40;;;;;;;;;;4984561;28;20245;-69
2022/07/13 13:06:55;;;;;;;0.65;0.55;;;;;;;;;;4984056;28;20062;-69
2022/07/13 13:09:22;;;;;;;0.50;0.50;;;;;;;;;;4984405;28;20049;-69
2022/07/13 13:11:47;;;;;;;2.10;0.30;;;;;;;;;;4983014;28;20037;-70
2022/07/13 13:14:14;;;;;;;2.75;0.40;;;;;;;;;;4985133;28;20031;-69
2022/07/13 13:16:40;;;;;;;2.67;0.50;;;;;;;;;;4983774;28;20084;-69
2022/07/13 13:19:07;;;;;;;0.35;0.35;;;;;;;;;;4985017;28;20137;-69
2022/07/13 13:21:33;;;;;;;0.57;0.40;;;;;;;;;;4984641;28;20372;-69
2022/07/13 13:24:01;;;;;;;0.30;0.30;;;;;;;;;;4985950;28;20046;-69
2022/07/13 13:26:27;;;;;;;0.30;0.30;;;;;;;;;;4984188;28;20105;-70
2022/07/13 13:31:37;;;;;;;1.38;0.40;;;;;;;;;;4980109;28;20042;-71
2022/07/13 13:34:02;;;;;;;0.85;0.22;;;;;;;;;;4982236;28;20058;-70
2022/07/13 13:36:28;;;;;;;1.80;0.50;;;;;;;;;;4982947;28;20094;-71
2022/07/13 13:38:53;;;;;;;0.45;0.32;;;;;;;;;;4981164;28;20499;-71
2022/07/13 13:41:19;;;;;;;2.83;0.50;;;;;;;;;;4981831;28;20073;-71
2022/07/13 13:43:44;;;;;;;0.45;0.40;;;;;;;;;;4982554;28;20049;-72
2022/07/13 13:46:09;;;;;;;4.65;0.40;;;;;;;;;;4982679;28;20472;-72
2022/07/13 13:48:35;;;;;;;2.13;0.40;;;;;;;;;;4982314;28;21160;-71
2022/07/13 13:51:00;;;;;;;0.40;0.40;;;;;;;;;;4984349;28;20403;-70
2022/07/13 13:53:26;;;;;;;1.20;0.30;;;;;;;;;;4983539;28;20398;-70
2022/07/13 13:55:52;;;;;;;0.70;0.35;;;;;;;;;;4982706;28;20042;-71
2022/07/13 13:58:18;;;;;;;0.30;0.30;;;;;;;;;;4984476;28;20030;-71
2022/07/13 14:00:43;;;;;;;0.98;0.40;;;;;;;;;;4983392;28;20038;-71
2022/07/13 14:03:09;;;;;;;1.65;0.40;;;;;;;;;;4982253;28;20581;-70
2022/07/13 14:05:34;;;;;;;5.22;0.47;;;;;;;;;;4982607;28;20045;-70
2022/07/13 14:08:00;;;;;;;0.30;0.30;;;;;;;;;;4982232;28;20038;-70
2022/07/13 14:10:26;;;;;;;0.40;0.40;;;;;;;;;;4980950;28;20042;-71
2022/07/13 14:12:52;;;;;;;3.53;0.60;;;;;;;;;;4982543;28;20038;-71
2022/07/13 14:15:18;;;;;;;2.92;0.40;;;;;;;;;;4981109;28;20045;-71
2022/07/13 14:17:44;;;;;;;2.35;0.50;;;;;;;;;;4983515;28;20403;-71
2022/07/13 14:20:09;;;;;;;3.88;0.30;;;;;;;;;;4982154;28;20039;-70
2022/07/13 14:22:35;;;;;;;2.75;0.47;;;;;;;;;;4983271;28;20041;-71
2022/07/13 14:25:01;;;;;;;2.33;0.38;;;;;;;;;;4982766;28;20034;-71
2022/07/13 14:27:27;;;;;;;2.08;0.47;;;;;;;;;;4983050;28;20776;-71
2022/07/13 14:29:53;;;;;;;1.85;0.50;;;;;;;;;;4983611;28;20026;-70
2022/07/13 14:32:19;;;;;;;1.48;0.47;;;;;;;;;;4983823;28;20034;-70
2022/07/13 14:34:45;;;;;;;3.75;0.40;;;;;;;;;;4982060;28;20042;-71
2022/07/13 14:37:12;;;;;;;0.57;0.38;;;;;;;;;;4982251;28;20124;-71
2022/07/13 14:39:37;;;;;;;1.02;0.28;;;;;;;;;;4982698;28;20069;-71
2022/07/13 14:42:03;;;;;;;2.20;0.40;;;;;;;;;;4983448;28;20073;-71
2022/07/13 14:44:28;;;;;;;3.50;0.30;;;;;;;;;;4983102;28;20038;-70
2022/07/13 14:46:54;;;;;;;1.60;0.40;;;;;;;;;;4980951;28;20592;-70
2022/07/13 14:49:20;;;;;;;1.13;0.40;;;;;;;;;;4981794;28;20778;-70
2022/07/13 14:51:46;;;;;;;1.38;0.40;;;;;;;;;;4983239;28;20037;-69
2022/07/13 14:54:11;;;;;;;0.93;0.30;;;;;;;;;;4981582;28;20399;-71
2022/07/13 14:56:37;;;;;;;0.98;0.60;;;;;;;;;;4983103;28;20036;-71
2022/07/13 14:59:03;;;;;;;1.45;0.30;;;;;;;;;;4981544;28;20494;-71